Current Conditions
Snow
Conditions



Pressure
1022.01 (hPa) - 30.18 (inHG)
Visibility

8.0 (miles) - 12.9 (km)
Temperature
34  °F
Temperature
30  °F
Dewpoint
87  %
 Humidity
Wind Speed
13  mph
11  kts
21  km/h
5.8  m/s
Wind Direction
N
45°
E
90°
135°
S
180°
225°
W
270°
315°
 20°

North North
East
Airport Data
KDEN
Denver International Airport
Metar :KDEN 180853Z 02011KT 8SM -SN BKN010 OVC017 01/M01 A3018 RMK AO2 SLP183 P0000 60000 T00111011 51002
Thu 18th April 02:53 am
Raw Metar Info
Raw METAR is the most common format in the world for the transmission of observational weather data. It is highly standardized through the International Civil Aviation Organization (ICAO), which allows it to be understood throughout most of the world.
API Info
Data Provided by
https://www.checkwx.com/weather/KDEN

Aviation Weather providing METAR, TAF, AIRMET, SIGMET and OUTLOOK Weather Reports
© Info
CSS/SVG/PHP scripts were developed by weather34 for use in the weather34 template © 2015-2024

Guide Info provided by Metar-Wikipedia